Mingo, West Virginia
Current Conditions -  °F | °C
As of 6:51 PM on Monday 22 Dec 2014 (Local Time) from KEKN Reporting Station
Clear Clear  
Wind Chill: 38°   Ceiling: Unl
Heat Index: 42°   Visibility: 10mi
Dew Point: 37°   Wind: 6mph
Humidity: 82%   Direction: 160°SSE
Pressure: 29.96"   Gusts: NA
Location:  38.5201°N, 80.0382°W
Report Text: KEKN 222351Z AUTO 16005KT 10SM CLR 06/03 A2996 RMK AO2 SLP169 60000 T00560028 10072 20039 58004 TSNO
Loading
Personal Weather Stations






























Interactive Weather Map New forecast layout! Learn more

10-Day Weather Forecast

Advertisements
Track Severe Weather on mobile